createdAt,value
2018-12-30T00:00:04.569Z,9.50
2018-12-30T00:01:04.550Z,9.00
2018-12-30T00:02:04.543Z,9.20
2018-12-30T00:03:04.536Z,9.40
2018-12-30T00:04:04.550Z,8.90
2018-12-30T00:05:04.510Z,9.20
2018-12-30T00:06:04.498Z,9.30
2018-12-30T00:07:04.496Z,9.10
2018-12-30T00:08:04.502Z,8.80
2018-12-30T00:09:04.482Z,9.50
2018-12-30T00:10:04.450Z,9.40
2018-12-30T00:11:04.462Z,9.90
2018-12-30T00:12:04.427Z,9.90
2018-12-30T00:13:04.424Z,9.40
2018-12-30T00:14:04.422Z,9.80
2018-12-30T00:15:04.400Z,10.40
2018-12-30T00:16:04.384Z,9.80
2018-12-30T00:17:04.387Z,9.80
2018-12-30T00:18:04.378Z,10.20
2018-12-30T00:19:04.376Z,10.10
2018-12-30T00:20:04.364Z,10.60
2018-12-30T00:21:08.938Z,10.20
2018-12-30T00:22:04.322Z,10.00
2018-12-30T00:23:04.307Z,9.90
2018-12-30T00:24:04.421Z,10.50
2018-12-30T00:25:04.279Z,10.40
2018-12-30T00:26:04.282Z,10.50
2018-12-30T00:27:04.263Z,10.50
2018-12-30T00:28:04.250Z,10.10
2018-12-30T00:29:04.274Z,10.20
2018-12-30T00:30:04.244Z,10.10
2018-12-30T00:31:04.218Z,10.80
2018-12-30T00:32:04.203Z,10.90
2018-12-30T00:33:04.207Z,10.70
2018-12-30T00:34:04.197Z,10.90
2018-12-30T00:35:04.193Z,10.40
2018-12-30T00:36:04.166Z,10.80
2018-12-30T00:37:04.157Z,10.50
2018-12-30T00:38:04.136Z,10.40
2018-12-30T00:39:04.127Z,10.70
2018-12-30T00:40:04.135Z,10.10
2018-12-30T00:41:04.109Z,10.00
2018-12-30T00:42:04.172Z,10.70
2018-12-30T00:43:04.091Z,10.50
2018-12-30T00:44:04.085Z,10.80
2018-12-30T00:45:04.088Z,11.20
2018-12-30T00:46:04.047Z,11.10
2018-12-30T00:47:04.040Z,10.70
2018-12-30T00:48:04.045Z,10.20
2018-12-30T00:49:04.026Z,9.90
2018-12-30T00:50:04.046Z,11.10
2018-12-30T00:51:04.005Z,10.60
2018-12-30T00:52:03.968Z,11.00
2018-12-30T00:53:03.979Z,11.40
2018-12-30T00:54:03.951Z,11.90
2018-12-30T00:55:03.954Z,11.00
2018-12-30T00:56:03.946Z,10.60
2018-12-30T00:57:03.936Z,10.90
2018-12-30T00:58:03.911Z,10.80
2018-12-30T00:59:03.915Z,11.20
2018-12-30T01:00:05.265Z,10.90
2018-12-30T01:01:03.879Z,11.20
2018-12-30T01:02:03.880Z,10.40
2018-12-30T01:03:03.867Z,11.10
2018-12-30T01:04:03.867Z,11.10
2018-12-30T01:05:03.852Z,11.30
2018-12-30T01:06:03.835Z,10.70
2018-12-30T01:07:03.809Z,10.70
2018-12-30T01:08:03.813Z,10.90
2018-12-30T01:09:03.796Z,10.30
2018-12-30T01:10:03.801Z,11.10
2018-12-30T01:11:03.764Z,11.60
2018-12-30T01:12:03.772Z,10.90
2018-12-30T01:13:03.760Z,10.60
2018-12-30T01:14:03.744Z,10.20
2018-12-30T01:15:03.747Z,11.10
2018-12-30T01:16:03.710Z,9.90
2018-12-30T01:17:03.712Z,10.00
2018-12-30T01:18:03.697Z,10.70
2018-12-30T01:19:03.691Z,9.60
2018-12-30T01:20:03.662Z,10.20
2018-12-30T01:21:03.675Z,10.80
2018-12-30T01:22:03.646Z,10.40
2018-12-30T01:23:03.643Z,10.20
2018-12-30T01:24:03.635Z,9.90
2018-12-30T01:25:03.615Z,10.70
2018-12-30T01:26:03.618Z,10.00
2018-12-30T01:27:03.616Z,10.10
2018-12-30T01:28:03.609Z,10.60
2018-12-30T01:29:03.570Z,9.80
2018-12-30T01:30:03.564Z,9.80
2018-12-30T01:31:03.561Z,9.70
2018-12-30T01:32:03.534Z,10.00
2018-12-30T01:33:03.522Z,9.90
2018-12-30T01:34:03.507Z,9.40
2018-12-30T01:35:03.509Z,8.90
2018-12-30T01:36:03.502Z,9.30
2018-12-30T01:37:03.476Z,8.70
2018-12-30T01:38:03.467Z,9.30
2018-12-30T01:39:03.451Z,8.90
2018-12-30T01:40:03.443Z,8.60
2018-12-30T01:41:03.464Z,8.70
2018-12-30T01:42:03.419Z,8.40
2018-12-30T01:43:03.405Z,8.60
2018-12-30T01:44:03.404Z,9.10
2018-12-30T01:45:03.389Z,8.90
2018-12-30T01:46:03.412Z,8.30
2018-12-30T01:47:03.364Z,8.50
2018-12-30T01:48:03.357Z,8.00
2018-12-30T01:49:03.343Z,8.40
2018-12-30T01:50:03.326Z,7.90
2018-12-30T01:51:03.330Z,8.40
2018-12-30T01:52:03.300Z,8.00
2018-12-30T01:53:03.298Z,7.80
2018-12-30T01:54:03.307Z,8.20
2018-12-30T01:55:03.285Z,7.50
2018-12-30T01:56:03.282Z,7.80
2018-12-30T01:57:03.260Z,7.80
2018-12-30T01:58:03.257Z,7.90
2018-12-30T01:59:03.248Z,7.10
2018-12-30T02:00:03.209Z,7.30
2018-12-30T02:01:03.207Z,7.10
2018-12-30T02:02:03.218Z,7.50
2018-12-30T02:03:03.175Z,7.20
2018-12-30T02:04:03.177Z,7.50
2018-12-30T02:05:03.162Z,6.90
2018-12-30T02:06:03.149Z,6.90
2018-12-30T02:07:03.160Z,7.10
2018-12-30T02:08:03.136Z,7.30
2018-12-30T02:09:03.121Z,6.50
2018-12-30T02:10:03.118Z,6.60
2018-12-30T02:11:03.095Z,6.80
2018-12-30T02:12:03.114Z,7.00
2018-12-30T02:13:03.066Z,6.60
2018-12-30T02:14:03.074Z,6.70
2018-12-30T02:15:03.071Z,6.90
2018-12-30T02:16:03.041Z,6.60
2018-12-30T02:17:03.050Z,6.50
2018-12-30T02:18:03.017Z,6.30
2018-12-30T02:19:03.006Z,6.90
2018-12-30T02:20:02.993Z,6.50
2018-12-30T02:21:02.991Z,6.40
2018-12-30T02:22:02.982Z,6.20
2018-12-30T02:23:02.967Z,5.90
2018-12-30T02:24:02.952Z,5.90
2018-12-30T02:25:02.946Z,6.60
2018-12-30T02:26:02.929Z,5.90
2018-12-30T02:27:02.923Z,5.00
2018-12-30T02:28:02.897Z,5.70
2018-12-30T02:29:02.893Z,5.80
2018-12-30T02:30:02.879Z,5.20
2018-12-30T02:31:02.871Z,5.50
2018-12-30T02:32:02.901Z,5.60
2018-12-30T02:33:02.845Z,5.10
2018-12-30T02:34:02.838Z,5.10
2018-12-30T02:35:02.826Z,4.80
2018-12-30T02:36:02.807Z,5.30
2018-12-30T02:37:02.826Z,4.90
2018-12-30T02:38:02.785Z,4.90
2018-12-30T02:39:02.784Z,4.90
2018-12-30T02:40:02.784Z,5.20
2018-12-30T02:41:02.770Z,5.10
2018-12-30T02:42:02.769Z,4.60
2018-12-30T02:43:02.744Z,5.10
2018-12-30T02:44:02.719Z,4.50
2018-12-30T02:45:02.733Z,4.60
2018-12-30T02:46:02.754Z,4.80
2018-12-30T02:47:02.706Z,5.30
2018-12-30T02:48:02.681Z,4.70
2018-12-30T02:49:02.684Z,4.90
2018-12-30T02:50:02.644Z,5.10
2018-12-30T02:51:02.667Z,5.10
2018-12-30T02:52:02.653Z,4.70
2018-12-30T02:53:02.637Z,4.80
2018-12-30T02:54:02.635Z,4.60
2018-12-30T02:55:02.607Z,4.50
2018-12-30T02:56:02.583Z,5.10
2018-12-30T02:57:02.576Z,5.40
2018-12-30T02:58:02.579Z,4.60
2018-12-30T02:59:02.557Z,4.40
2018-12-30T03:00:02.559Z,4.30
2018-12-30T03:01:02.533Z,4.20
2018-12-30T03:02:02.536Z,4.70
2018-12-30T03:03:02.596Z,4.30
2018-12-30T03:04:02.495Z,3.90
2018-12-30T03:05:02.496Z,4.20
2018-12-30T03:06:02.487Z,3.90
2018-12-30T03:07:02.462Z,3.90
2018-12-30T03:08:02.464Z,4.80
2018-12-30T03:09:02.443Z,3.80
2018-12-30T03:10:02.429Z,4.10
2018-12-30T03:11:02.422Z,4.10
2018-12-30T03:12:02.418Z,3.90
2018-12-30T03:13:02.426Z,4.00
2018-12-30T03:14:02.387Z,3.70
2018-12-30T03:15:02.371Z,3.60
2018-12-30T03:16:02.368Z,3.30
2018-12-30T03:17:02.359Z,3.40
2018-12-30T03:18:02.355Z,3.70
2018-12-30T03:19:02.329Z,3.60
2018-12-30T03:20:02.316Z,3.50
2018-12-30T03:21:02.314Z,3.00
2018-12-30T03:22:02.305Z,3.00
2018-12-30T03:23:02.309Z,3.00
2018-12-30T03:24:02.290Z,3.10
2018-12-30T03:25:02.269Z,2.90
2018-12-30T03:26:02.262Z,2.90
2018-12-30T03:27:02.243Z,2.80
2018-12-30T03:28:02.255Z,2.90
2018-12-30T03:29:02.229Z,2.60
2018-12-30T03:30:02.213Z,2.50
2018-12-30T03:31:02.195Z,2.60
2018-12-30T03:32:02.204Z,2.30
2018-12-30T03:33:02.207Z,2.30
2018-12-30T03:34:02.214Z,2.30
2018-12-30T03:35:02.156Z,2.20
2018-12-30T03:36:02.142Z,2.40
2018-12-30T03:37:02.153Z,2.20
2018-12-30T03:38:02.134Z,2.30
2018-12-30T03:39:02.129Z,2.40
2018-12-30T03:40:02.125Z,2.10
2018-12-30T03:41:02.090Z,1.90
2018-12-30T03:42:02.082Z,1.70
2018-12-30T03:43:02.081Z,1.70
2018-12-30T03:44:02.085Z,1.80
2018-12-30T03:45:02.040Z,1.60
2018-12-30T03:46:02.026Z,1.70
2018-12-30T03:47:02.024Z,1.80
2018-12-30T03:48:02.006Z,1.80
2018-12-30T03:49:02.024Z,1.60
2018-12-30T03:50:02.002Z,1.70
2018-12-30T03:51:01.975Z,1.70
2018-12-30T03:52:08.266Z,1.80
2018-12-30T03:53:02.955Z,1.90
2018-12-30T03:54:01.962Z,1.70
2018-12-30T03:55:01.933Z,1.70
2018-12-30T03:56:01.914Z,1.50
2018-12-30T03:57:01.896Z,1.50
2018-12-30T03:58:01.911Z,1.70
2018-12-30T03:59:01.893Z,1.60
2018-12-30T04:00:01.874Z,1.60
2018-12-30T04:01:01.908Z,1.50
2018-12-30T04:02:01.852Z,1.80
2018-12-30T04:03:01.868Z,1.50
2018-12-30T04:04:01.836Z,1.30
2018-12-30T04:05:01.813Z,1.70
2018-12-30T04:06:01.797Z,1.60
2018-12-30T04:07:01.793Z,1.80
2018-12-30T04:08:01.781Z,1.40
2018-12-30T04:09:01.778Z,1.60
2018-12-30T04:10:01.768Z,1.50
2018-12-30T04:11:01.748Z,1.70
2018-12-30T04:12:01.732Z,1.60
2018-12-30T04:13:01.722Z,1.70
2018-12-30T04:14:01.720Z,1.60
2018-12-30T04:15:01.718Z,1.90
2018-12-30T04:16:01.699Z,1.80
2018-12-30T04:17:01.677Z,2.00
2018-12-30T04:18:01.668Z,1.80
2018-12-30T04:19:01.695Z,1.70
2018-12-30T04:20:01.662Z,2.00
2018-12-30T04:21:01.635Z,1.90
2018-12-30T04:22:01.624Z,1.70
2018-12-30T04:23:01.612Z,2.00
2018-12-30T04:24:01.596Z,1.90
2018-12-30T04:25:01.658Z,2.00
2018-12-30T04:26:01.623Z,2.00
2018-12-30T04:27:01.558Z,1.90
2018-12-30T04:28:01.568Z,2.10
2018-12-30T04:29:01.548Z,2.10
2018-12-30T04:30:01.561Z,2.10
2018-12-30T04:31:01.522Z,1.80
2018-12-30T04:32:01.532Z,2.00
2018-12-30T04:33:01.500Z,1.80
2018-12-30T04:34:01.486Z,1.90
2018-12-30T04:35:01.505Z,1.90
2018-12-30T04:36:01.474Z,1.70
2018-12-30T04:37:01.452Z,1.80
2018-12-30T04:38:01.448Z,1.80
2018-12-30T04:39:01.431Z,2.00
2018-12-30T04:40:01.442Z,1.60
2018-12-30T04:41:01.412Z,1.90
2018-12-30T04:42:01.397Z,1.90
2018-12-30T04:43:01.402Z,1.90
2018-12-30T04:44:01.374Z,1.70
2018-12-30T04:45:01.393Z,2.00
2018-12-30T04:46:01.348Z,1.80
2018-12-30T04:47:01.336Z,1.90
2018-12-30T04:48:01.337Z,1.80
2018-12-30T04:49:01.323Z,2.10
2018-12-30T04:50:01.323Z,1.90
2018-12-30T04:51:01.309Z,2.00
2018-12-30T04:52:01.287Z,1.50
2018-12-30T04:53:01.288Z,1.70
2018-12-30T04:54:01.269Z,1.90
2018-12-30T04:55:01.295Z,1.50
2018-12-30T04:56:01.241Z,1.80
2018-12-30T04:57:01.225Z,1.50
2018-12-30T04:58:01.219Z,1.50
2018-12-30T04:59:01.212Z,1.30
2018-12-30T05:00:01.209Z,1.30
2018-12-30T05:01:01.231Z,1.50
2018-12-30T05:02:01.173Z,1.50
2018-12-30T05:03:01.160Z,1.30
2018-12-30T05:04:01.159Z,1.20
2018-12-30T05:05:01.151Z,1.40
2018-12-30T05:06:01.134Z,1.50
2018-12-30T05:07:01.119Z,1.20
2018-12-30T05:08:01.131Z,1.10
2018-12-30T05:09:01.093Z,1.30
2018-12-30T05:10:01.120Z,1.10
2018-12-30T05:11:01.075Z,1.30
2018-12-30T05:12:01.057Z,1.10
2018-12-30T05:13:01.055Z,1.00
2018-12-30T05:14:01.038Z,1.00
2018-12-30T05:15:01.139Z,1.20
2018-12-30T05:16:01.050Z,0.90
2018-12-30T05:17:01.018Z,0.90
2018-12-30T05:18:00.993Z,0.80
2018-12-30T05:19:00.973Z,0.90
2018-12-30T05:20:00.963Z,0.80
2018-12-30T05:21:00.982Z,0.80
2018-12-30T05:22:00.955Z,0.70
2018-12-30T05:23:00.955Z,0.60
2018-12-30T05:24:00.927Z,0.60
2018-12-30T05:25:00.919Z,0.80
2018-12-30T05:26:00.926Z,0.60
2018-12-30T05:27:00.891Z,0.70
2018-12-30T05:28:00.893Z,0.50
2018-12-30T05:29:00.877Z,0.60
2018-12-30T05:30:00.863Z,0.60
2018-12-30T05:31:00.849Z,0.60
2018-12-30T05:32:00.842Z,0.80
2018-12-30T05:33:00.870Z,0.60
2018-12-30T05:34:00.814Z,0.60
2018-12-30T05:35:00.816Z,0.60
2018-12-30T05:36:00.917Z,0.60
2018-12-30T05:37:00.783Z,0.70
2018-12-30T05:38:00.765Z,0.60
2018-12-30T05:39:00.791Z,0.60
2018-12-30T05:40:00.761Z,0.70
2018-12-30T05:41:00.753Z,0.70
2018-12-30T05:42:00.723Z,0.60
2018-12-30T05:43:00.714Z,0.60
2018-12-30T05:44:00.705Z,0.60
2018-12-30T05:45:00.686Z,0.60
2018-12-30T05:46:00.686Z,0.40
2018-12-30T05:47:00.660Z,0.60
2018-12-30T05:48:00.655Z,0.40
2018-12-30T05:49:00.652Z,0.60
2018-12-30T05:50:00.625Z,0.60
2018-12-30T05:51:00.668Z,0.50
2018-12-30T05:52:00.615Z,0.50
2018-12-30T05:53:00.601Z,0.30
2018-12-30T05:54:00.592Z,0.50
2018-12-30T05:55:00.592Z,0.40
2018-12-30T05:56:00.594Z,0.40
2018-12-30T05:57:00.566Z,0.40
2018-12-30T05:58:00.543Z,0.50
2018-12-30T05:59:00.531Z,0.30
2018-12-30T06:00:00.532Z,0.40
2018-12-30T06:01:00.520Z,0.30
2018-12-30T06:02:00.524Z,0.20
2018-12-30T06:03:00.493Z,0.40
2018-12-30T06:04:00.486Z,0.30
2018-12-30T06:05:00.471Z,0.30
2018-12-30T06:06:00.453Z,0.30
2018-12-30T06:07:00.459Z,0.50
2018-12-30T06:08:00.437Z,0.40
2018-12-30T06:09:00.419Z,0.30
2018-12-30T06:10:00.411Z,0.40
2018-12-30T06:11:00.403Z,0.30
2018-12-30T06:12:00.407Z,0.40
2018-12-30T06:13:00.368Z,0.40
2018-12-30T06:14:00.370Z,0.40
2018-12-30T06:15:00.360Z,0.50
2018-12-30T06:16:00.339Z,0.50
2018-12-30T06:17:00.343Z,0.40
2018-12-30T06:18:00.313Z,0.50
2018-12-30T06:19:00.310Z,0.40
2018-12-30T06:20:00.298Z,0.30
2018-12-30T06:21:00.284Z,0.40
2018-12-30T06:22:00.295Z,0.40
2018-12-30T06:23:00.267Z,0.50
2018-12-30T06:24:00.246Z,0.50
2018-12-30T06:25:00.242Z,0.50
2018-12-30T06:26:00.225Z,0.50
2018-12-30T06:27:00.237Z,0.50
2018-12-30T06:28:00.213Z,0.50
2018-12-30T06:29:00.193Z,0.50
2018-12-30T06:30:00.199Z,0.50
2018-12-30T06:31:00.170Z,0.60
2018-12-30T06:32:00.192Z,0.50
2018-12-30T06:33:00.160Z,0.60
2018-12-30T06:34:00.140Z,0.50
2018-12-30T06:35:00.278Z,0.50
2018-12-30T06:36:00.109Z,0.40
2018-12-30T06:37:00.122Z,0.60
2018-12-30T06:38:00.097Z,0.50
2018-12-30T06:39:00.090Z,0.90
2018-12-30T06:40:00.090Z,0.50
2018-12-30T06:41:00.062Z,0.70
2018-12-30T06:42:00.044Z,0.80
2018-12-30T06:43:00.078Z,0.80
2018-12-30T06:44:00.018Z,0.80
2018-12-30T06:45:00.016Z,0.80
2018-12-30T06:45:59.998Z,0.80
2018-12-30T06:46:59.989Z,0.80
2018-12-30T06:47:59.985Z,1.00
2018-12-30T06:48:59.970Z,0.90
2018-12-30T06:49:59.958Z,1.00
2018-12-30T06:50:59.953Z,0.90
2018-12-30T06:51:59.953Z,0.90
2018-12-30T06:52:59.952Z,0.90
2018-12-30T06:53:59.911Z,0.90
2018-12-30T06:54:59.913Z,1.00
2018-12-30T06:55:59.902Z,0.90
2018-12-30T06:56:59.876Z,1.10
2018-12-30T06:57:59.880Z,1.30
2018-12-30T06:58:59.878Z,1.30
2018-12-30T06:59:59.845Z,1.60
2018-12-30T07:00:59.878Z,1.10
2018-12-30T07:01:59.827Z,1.30
2018-12-30T07:02:59.837Z,1.40
2018-12-30T07:03:59.807Z,1.30
2018-12-30T07:04:59.783Z,1.80
2018-12-30T07:05:59.793Z,1.60
2018-12-30T07:06:59.761Z,1.60
2018-12-30T07:07:59.761Z,1.20
2018-12-30T07:08:59.747Z,1.60
2018-12-30T07:09:59.735Z,2.10
2018-12-30T07:10:59.730Z,1.50
2018-12-30T07:11:59.715Z,1.50
2018-12-30T07:12:59.729Z,2.00
2018-12-30T07:13:59.723Z,1.90
2018-12-30T07:14:59.717Z,1.70
2018-12-30T07:15:59.678Z,1.90
2018-12-30T07:16:59.702Z,2.00
2018-12-30T07:17:59.659Z,1.90
2018-12-30T07:18:59.639Z,2.00
2018-12-30T07:19:59.625Z,2.00
2018-12-30T07:20:59.603Z,2.10
2018-12-30T07:21:59.593Z,2.20
2018-12-30T07:23:05.742Z,2.10
2018-12-30T07:24:00.612Z,1.80
2018-12-30T07:24:59.559Z,2.20
2018-12-30T07:25:59.564Z,2.50
2018-12-30T07:26:59.538Z,1.80
2018-12-30T07:27:59.531Z,1.50
2018-12-30T07:28:59.527Z,1.80
2018-12-30T07:29:59.507Z,2.00
2018-12-30T07:30:59.505Z,2.30
2018-12-30T07:31:59.486Z,1.50
2018-12-30T07:32:59.501Z,2.20
2018-12-30T07:33:59.496Z,2.10
2018-12-30T07:34:59.459Z,1.90
2018-12-30T07:35:59.433Z,1.90
2018-12-30T07:36:59.428Z,2.30
2018-12-30T07:37:59.417Z,2.30
2018-12-30T07:38:59.424Z,2.40
2018-12-30T07:39:59.394Z,2.20
2018-12-30T07:40:59.380Z,2.10
2018-12-30T07:41:59.377Z,2.30
2018-12-30T07:42:59.383Z,2.30
2018-12-30T07:43:59.385Z,2.40
2018-12-30T07:44:59.332Z,2.20
2018-12-30T07:45:59.333Z,2.30
2018-12-30T07:46:59.319Z,2.10
2018-12-30T07:47:59.308Z,2.30
2018-12-30T07:48:59.308Z,2.40
2018-12-30T07:49:59.291Z,2.50
2018-12-30T07:50:59.261Z,2.10
2018-12-30T07:51:59.275Z,2.00
2018-12-30T07:52:59.243Z,2.30
2018-12-30T07:53:59.251Z,2.00
2018-12-30T07:54:59.239Z,2.20
2018-12-30T07:55:59.218Z,2.40
2018-12-30T07:56:59.219Z,2.20
2018-12-30T07:57:59.192Z,2.30
2018-12-30T07:58:59.194Z,1.80
2018-12-30T07:59:59.184Z,2.10
2018-12-30T08:00:59.157Z,1.90
2018-12-30T08:01:59.138Z,2.20
2018-12-30T08:02:59.145Z,1.80
2018-12-30T08:03:59.134Z,1.80
2018-12-30T08:04:59.110Z,1.80
2018-12-30T08:05:59.124Z,1.80
2018-12-30T08:06:59.092Z,2.00
2018-12-30T08:07:59.098Z,1.80
2018-12-30T08:08:59.101Z,1.70
2018-12-30T08:09:59.067Z,1.80
2018-12-30T08:10:59.074Z,1.90
2018-12-30T08:11:59.042Z,1.90
2018-12-30T08:12:59.016Z,1.90
2018-12-30T08:13:59.014Z,1.90
2018-12-30T08:14:59.438Z,2.00
2018-12-30T08:15:58.995Z,1.90
2018-12-30T08:16:58.978Z,1.60
2018-12-30T08:17:58.960Z,2.10
2018-12-30T08:18:58.960Z,2.00
2018-12-30T08:19:58.962Z,1.80
2018-12-30T08:20:58.974Z,2.10
2018-12-30T08:21:58.925Z,2.20
2018-12-30T08:22:58.920Z,2.10
2018-12-30T08:23:58.903Z,2.20
2018-12-30T08:24:58.899Z,2.10
2018-12-30T08:25:58.876Z,2.10
2018-12-30T08:26:58.912Z,1.90
2018-12-30T08:27:58.848Z,2.20
2018-12-30T08:28:58.854Z,2.10
2018-12-30T08:29:58.864Z,2.10
2018-12-30T08:30:58.844Z,2.00
2018-12-30T08:31:58.814Z,2.00
2018-12-30T08:32:58.790Z,1.70
2018-12-30T08:33:58.790Z,2.00
2018-12-30T08:34:58.788Z,1.90
2018-12-30T08:35:58.779Z,1.90
2018-12-30T08:36:58.746Z,1.60
2018-12-30T08:37:58.743Z,1.60
2018-12-30T08:38:58.726Z,1.80
2018-12-30T08:39:58.738Z,1.60
2018-12-30T08:40:59.386Z,1.60
2018-12-30T08:41:58.713Z,1.40
2018-12-30T08:42:58.689Z,1.70
2018-12-30T08:43:58.669Z,1.60
2018-12-30T08:44:58.700Z,1.50
2018-12-30T08:45:58.654Z,1.70
2018-12-30T08:46:58.653Z,1.80
2018-12-30T08:47:58.633Z,1.50
2018-12-30T08:48:58.614Z,1.60
2018-12-30T08:49:58.625Z,1.50
2018-12-30T08:50:58.606Z,1.60
2018-12-30T08:51:58.593Z,1.30
2018-12-30T08:52:58.580Z,1.60
2018-12-30T08:53:58.564Z,1.50
2018-12-30T08:54:58.573Z,1.30
2018-12-30T08:55:58.545Z,1.50
2018-12-30T08:56:58.521Z,1.50
2018-12-30T08:57:58.630Z,1.40
2018-12-30T08:58:58.504Z,1.60
2018-12-30T08:59:58.516Z,1.50
2018-12-30T09:00:58.477Z,1.40
2018-12-30T09:01:58.483Z,1.30
2018-12-30T09:02:58.476Z,1.50
2018-12-30T09:03:58.462Z,1.40
2018-12-30T09:04:58.454Z,1.50
2018-12-30T09:05:58.450Z,1.50
2018-12-30T09:06:58.420Z,1.50
2018-12-30T09:07:58.453Z,1.60
2018-12-30T09:08:58.401Z,1.30
2018-12-30T09:09:58.381Z,1.30
2018-12-30T09:10:58.408Z,1.30
2018-12-30T09:11:58.356Z,1.50
2018-12-30T09:12:58.365Z,1.50
2018-12-30T09:13:58.333Z,1.40
2018-12-30T09:14:58.320Z,1.20
2018-12-30T09:15:58.335Z,1.20
2018-12-30T09:16:58.313Z,1.60
2018-12-30T09:17:58.350Z,1.30
2018-12-30T09:18:58.280Z,1.20
2018-12-30T09:19:58.277Z,1.10
2018-12-30T09:20:58.276Z,1.30
2018-12-30T09:21:58.237Z,1.50
2018-12-30T09:22:58.234Z,1.20
2018-12-30T09:23:58.270Z,1.10
2018-12-30T09:24:58.213Z,1.50
2018-12-30T09:25:58.220Z,1.20
2018-12-30T09:26:58.190Z,1.50
2018-12-30T09:27:58.249Z,1.70
2018-12-30T09:28:58.155Z,1.20
2018-12-30T09:29:58.152Z,1.40
2018-12-30T09:30:58.175Z,1.40
2018-12-30T09:31:58.133Z,1.50
2018-12-30T09:32:58.118Z,1.50
2018-12-30T09:33:58.115Z,1.40
2018-12-30T09:34:58.101Z,1.30
2018-12-30T09:35:58.182Z,1.40
2018-12-30T09:36:58.116Z,1.60
2018-12-30T09:37:58.114Z,1.50
2018-12-30T09:38:58.124Z,1.40
2018-12-30T09:39:58.044Z,1.50
2018-12-30T09:40:58.071Z,1.20
2018-12-30T09:41:58.035Z,1.50
2018-12-30T09:42:58.000Z,1.30
2018-12-30T09:43:58.002Z,1.40
2018-12-30T09:44:57.990Z,1.40
2018-12-30T09:45:57.975Z,1.40
2018-12-30T09:46:57.976Z,1.60
2018-12-30T09:47:57.959Z,1.30
2018-12-30T09:48:57.961Z,1.40
2018-12-30T09:49:57.935Z,1.50
2018-12-30T09:50:57.920Z,1.50
2018-12-30T09:51:58.812Z,1.70
2018-12-30T09:52:57.901Z,1.50
2018-12-30T09:53:57.893Z,1.60
2018-12-30T09:54:57.879Z,1.70
2018-12-30T09:55:57.861Z,1.40
2018-12-30T09:56:57.885Z,1.40
2018-12-30T09:57:57.849Z,1.60
2018-12-30T09:58:57.831Z,1.80
2018-12-30T09:59:57.822Z,1.50
2018-12-30T10:00:57.805Z,1.70
2018-12-30T10:01:57.821Z,1.80
2018-12-30T10:02:57.810Z,1.50
2018-12-30T10:03:57.790Z,1.80
2018-12-30T10:04:57.758Z,1.80
2018-12-30T10:05:57.755Z,1.80
2018-12-30T10:06:57.794Z,1.60
2018-12-30T10:07:57.723Z,1.90
2018-12-30T10:08:57.719Z,1.80
2018-12-30T10:09:57.708Z,1.80
2018-12-30T10:10:57.691Z,1.90
2018-12-30T10:11:57.708Z,2.20
2018-12-30T10:12:57.680Z,1.70
2018-12-30T10:13:57.675Z,2.20
2018-12-30T10:14:57.655Z,2.00
2018-12-30T10:15:57.648Z,1.90
2018-12-30T10:16:57.659Z,1.50
2018-12-30T10:17:57.619Z,1.80
2018-12-30T10:18:57.619Z,1.60
2018-12-30T10:19:57.596Z,1.90
2018-12-30T10:20:57.587Z,1.70
2018-12-30T10:21:57.594Z,1.90
2018-12-30T10:22:58.879Z,2.10
2018-12-30T10:23:57.541Z,1.50
2018-12-30T10:24:57.555Z,1.80
2018-12-30T10:25:57.528Z,1.70
2018-12-30T10:26:57.555Z,1.40
2018-12-30T10:27:57.520Z,1.60
2018-12-30T10:28:57.496Z,1.30
2018-12-30T10:29:57.489Z,1.70
2018-12-30T10:30:57.477Z,2.00
2018-12-30T10:31:57.470Z,1.70
2018-12-30T10:32:57.470Z,1.70
2018-12-30T10:33:57.470Z,2.10
2018-12-30T10:34:57.438Z,1.80
2018-12-30T10:35:57.426Z,1.90
2018-12-30T10:36:57.436Z,1.80
2018-12-30T10:37:57.403Z,1.70
2018-12-30T10:38:57.378Z,1.60
2018-12-30T10:39:57.410Z,1.90
2018-12-30T10:40:57.355Z,1.80
2018-12-30T10:41:57.369Z,1.90
2018-12-30T10:42:57.345Z,1.90
2018-12-30T10:43:57.340Z,2.20
2018-12-30T10:44:57.314Z,2.40
2018-12-30T10:45:57.305Z,2.00
2018-12-30T10:46:57.296Z,1.90
2018-12-30T10:47:57.306Z,1.80
2018-12-30T10:48:57.302Z,1.70
2018-12-30T10:49:57.255Z,2.10
2018-12-30T10:50:57.246Z,1.40
2018-12-30T10:51:57.241Z,1.80
2018-12-30T10:52:57.233Z,1.70
2018-12-30T10:54:00.702Z,1.70
2018-12-30T10:54:57.206Z,1.80
2018-12-30T10:55:57.216Z,2.30
2018-12-30T10:56:57.205Z,2.20
2018-12-30T10:57:57.190Z,2.60
2018-12-30T10:58:57.164Z,2.40
2018-12-30T10:59:57.149Z,1.50
2018-12-30T11:00:57.148Z,1.80
2018-12-30T11:01:57.117Z,2.00
2018-12-30T11:02:57.148Z,1.90
2018-12-30T11:03:57.114Z,2.00
2018-12-30T11:04:57.094Z,1.90
2018-12-30T11:05:57.090Z,1.80
2018-12-30T11:06:57.063Z,1.50
2018-12-30T11:07:57.049Z,2.10
2018-12-30T11:08:57.057Z,2.00
2018-12-30T11:09:57.031Z,1.80
2018-12-30T11:10:57.020Z,1.80
2018-12-30T11:11:57.015Z,2.20
2018-12-30T11:12:56.999Z,1.60
2018-12-30T11:13:56.997Z,2.00
2018-12-30T11:14:56.972Z,1.60
2018-12-30T11:15:56.983Z,1.70
2018-12-30T11:16:56.948Z,1.70
2018-12-30T11:17:56.974Z,1.90
2018-12-30T11:18:56.952Z,1.90
2018-12-30T11:19:56.925Z,1.60
2018-12-30T11:20:56.912Z,1.80
2018-12-30T11:21:56.904Z,1.80
2018-12-30T11:22:56.891Z,2.30
2018-12-30T11:23:56.892Z,2.20
2018-12-30T11:24:56.964Z,2.00
2018-12-30T11:25:56.861Z,2.00
2018-12-30T11:26:56.836Z,2.00
2018-12-30T11:27:56.829Z,2.10
2018-12-30T11:28:56.826Z,1.80
2018-12-30T11:29:56.821Z,2.10
2018-12-30T11:30:56.809Z,1.90
2018-12-30T11:31:56.785Z,2.10
2018-12-30T11:32:56.780Z,2.00
2018-12-30T11:33:56.783Z,1.90
2018-12-30T11:34:56.764Z,1.60
2018-12-30T11:35:56.755Z,1.70
2018-12-30T11:36:56.729Z,1.70
2018-12-30T11:37:56.712Z,1.80
2018-12-30T11:38:56.738Z,1.70
2018-12-30T11:39:56.716Z,1.90
2018-12-30T11:40:56.704Z,1.90
2018-12-30T11:41:56.711Z,1.80
2018-12-30T11:42:56.672Z,2.00
2018-12-30T11:43:56.671Z,2.10
2018-12-30T11:44:56.653Z,2.20
2018-12-30T11:45:56.644Z,2.10
2018-12-30T11:46:56.621Z,1.70
2018-12-30T11:47:56.607Z,2.20
2018-12-30T11:48:56.659Z,2.30
2018-12-30T11:49:56.596Z,1.60
2018-12-30T11:50:56.587Z,2.00
2018-12-30T11:51:56.565Z,1.40
2018-12-30T11:52:56.560Z,2.30
2018-12-30T11:53:56.546Z,1.70
2018-12-30T11:54:56.543Z,1.90
2018-12-30T11:55:56.516Z,1.90
2018-12-30T11:56:56.514Z,1.90
2018-12-30T11:57:56.507Z,2.50
2018-12-30T11:58:56.498Z,1.60
2018-12-30T11:59:56.505Z,1.70
2018-12-30T12:00:56.479Z,1.80
2018-12-30T12:01:56.453Z,1.60
2018-12-30T12:02:56.466Z,1.80
2018-12-30T12:03:56.431Z,1.30
2018-12-30T12:04:56.473Z,1.70
2018-12-30T12:05:56.451Z,1.60
2018-12-30T12:06:56.388Z,1.70
2018-12-30T12:07:56.388Z,1.80
2018-12-30T12:08:56.382Z,1.80
2018-12-30T12:09:56.395Z,2.00
2018-12-30T12:10:56.345Z,1.80
2018-12-30T12:11:56.346Z,1.90
2018-12-30T12:12:56.340Z,1.90
2018-12-30T12:13:56.334Z,1.70
2018-12-30T12:14:56.346Z,1.90
2018-12-30T12:15:56.309Z,1.50
2018-12-30T12:16:56.282Z,1.40
2018-12-30T12:17:56.261Z,1.40
2018-12-30T12:18:56.261Z,1.60
2018-12-30T12:19:56.267Z,1.50
2018-12-30T12:20:56.233Z,1.30
2018-12-30T12:21:56.219Z,1.80
2018-12-30T12:22:56.216Z,1.70
2018-12-30T12:23:56.207Z,1.80
2018-12-30T12:24:56.209Z,1.40
2018-12-30T12:25:56.171Z,1.60
2018-12-30T12:26:56.183Z,1.40
2018-12-30T12:27:56.176Z,1.60
2018-12-30T12:28:56.141Z,1.50
2018-12-30T12:29:56.147Z,1.70
2018-12-30T12:30:56.130Z,1.70
2018-12-30T12:31:56.105Z,1.70
2018-12-30T12:32:56.096Z,1.40
2018-12-30T12:33:56.097Z,1.90
2018-12-30T12:34:56.098Z,1.70
2018-12-30T12:35:56.075Z,1.80
2018-12-30T12:36:56.059Z,2.00
2018-12-30T12:37:56.040Z,1.60
2018-12-30T12:38:56.062Z,1.50
2018-12-30T12:39:56.047Z,1.70
2018-12-30T12:40:56.019Z,1.80
2018-12-30T12:41:55.995Z,1.60
2018-12-30T12:42:55.994Z,1.70
2018-12-30T12:43:55.977Z,1.60
2018-12-30T12:44:55.985Z,1.50
2018-12-30T12:45:55.955Z,1.60
2018-12-30T12:46:55.952Z,1.60
2018-12-30T12:47:55.935Z,1.60
2018-12-30T12:48:55.929Z,1.40
2018-12-30T12:49:55.912Z,1.30
2018-12-30T12:50:55.916Z,1.50
2018-12-30T12:51:55.888Z,1.30
2018-12-30T12:52:55.897Z,1.50
2018-12-30T12:53:55.860Z,1.50
2018-12-30T12:54:55.856Z,1.90
2018-12-30T12:55:55.867Z,2.30
2018-12-30T12:56:55.848Z,1.80
2018-12-30T12:57:55.827Z,1.40
2018-12-30T12:58:55.819Z,1.80
2018-12-30T12:59:55.801Z,1.80
2018-12-30T13:00:55.803Z,1.70
2018-12-30T13:01:55.786Z,1.70
2018-12-30T13:02:55.769Z,1.60
2018-12-30T13:03:55.747Z,1.70
2018-12-30T13:04:55.744Z,1.60
2018-12-30T13:05:55.735Z,1.60
2018-12-30T13:06:55.714Z,1.30
2018-12-30T13:07:55.713Z,1.80
2018-12-30T13:08:55.700Z,1.90
2018-12-30T13:09:55.683Z,2.00
2018-12-30T13:10:55.699Z,1.50
2018-12-30T13:11:55.682Z,1.60
2018-12-30T13:12:55.652Z,1.60
2018-12-30T13:13:55.639Z,1.30
2018-12-30T13:14:55.626Z,1.50
2018-12-30T13:16:03.172Z,1.60